sensor_id;sensor_type;location;lat;lon;timestamp;pressure;altitude;pressure_sealevel;temperature;humidity
63088;BME280;49173;43.164;27.786;2023-04-02T00:08:01;99287.84;;;11.54;69.73
63088;BME280;49173;43.164;27.786;2023-04-02T00:10:47;99287.72;;;11.55;70.26
63088;BME280;49173;43.164;27.786;2023-04-02T00:15:43;99277.84;;;11.56;69.29
63088;BME280;49173;43.164;27.786;2023-04-02T00:18:15;99270.00;;;11.53;69.28
63088;BME280;49173;43.164;27.786;2023-04-02T00:20:45;99258.75;;;11.48;69.27
63088;BME280;49173;43.164;27.786;2023-04-02T00:23:12;99275.13;;;11.45;68.90
63088;BME280;49173;43.164;27.786;2023-04-02T00:25:40;99280.22;;;11.37;68.92
63088;BME280;49173;43.164;27.786;2023-04-02T00:28:17;99287.03;;;11.30;69.81
63088;BME280;49173;43.164;27.786;2023-04-02T00:31:08;99293.47;;;11.27;69.75
63088;BME280;49173;43.164;27.786;2023-04-02T00:33:34;99295.66;;;11.22;70.31
63088;BME280;49173;43.164;27.786;2023-04-02T00:36:04;99300.50;;;11.17;69.99
63088;BME280;49173;43.164;27.786;2023-04-02T00:38:33;99300.38;;;11.18;70.32
63088;BME280;49173;43.164;27.786;2023-04-02T00:41:04;99309.16;;;11.20;70.47
63088;BME280;49173;43.164;27.786;2023-04-02T00:43:34;99308.22;;;11.21;70.50
63088;BME280;49173;43.164;27.786;2023-04-02T00:46:03;99301.75;;;11.24;69.72
63088;BME280;49173;43.164;27.786;2023-04-02T00:49:21;99306.00;;;11.15;69.90
63088;BME280;49173;43.164;27.786;2023-04-02T00:51:55;99294.41;;;11.15;70.33
63088;BME280;49173;43.164;27.786;2023-04-02T00:54:24;99290.34;;;11.09;70.16
63088;BME280;49173;43.164;27.786;2023-04-02T00:56:54;99298.38;;;11.09;69.84
63088;BME280;49173;43.164;27.786;2023-04-02T00:59:31;99303.47;;;11.01;69.83
63088;BME280;49173;43.164;27.786;2023-04-02T01:02:21;99299.28;;;10.97;70.37
63088;BME280;49173;43.164;27.786;2023-04-02T01:04:59;99306.38;;;10.98;70.44
63088;BME280;49173;43.164;27.786;2023-04-02T01:16:12;99318.44;;;10.92;70.86
63088;BME280;49173;43.164;27.786;2023-04-02T01:18:53;99306.72;;;10.93;70.83
63088;BME280;49173;43.164;27.786;2023-04-02T01:21:33;99293.50;;;10.90;70.64
63088;BME280;49173;43.164;27.786;2023-04-02T01:24:08;99310.59;;;10.89;71.07
63088;BME280;49173;43.164;27.786;2023-04-02T01:27:05;99315.84;;;10.91;70.80
63088;BME280;49173;43.164;27.786;2023-04-02T01:29:36;99314.25;;;10.88;70.77
63088;BME280;49173;43.164;27.786;2023-04-02T01:32:06;99305.53;;;10.85;71.17
63088;BME280;49173;43.164;27.786;2023-04-02T01:34:34;99309.22;;;10.84;71.50
63088;BME280;49173;43.164;27.786;2023-04-02T01:37:19;99303.97;;;10.82;71.08
63088;BME280;49173;43.164;27.786;2023-04-02T01:45:04;99307.50;;;10.83;71.68
63088;BME280;49173;43.164;27.786;2023-04-02T01:47:32;99305.53;;;10.85;71.75
63088;BME280;49173;43.164;27.786;2023-04-02T01:52:45;99304.38;;;10.89;71.98
63088;BME280;49173;43.164;27.786;2023-04-02T01:55:16;99302.53;;;10.89;71.90
63088;BME280;49173;43.164;27.786;2023-04-02T01:57:45;99306.06;;;10.90;71.96
63088;BME280;49173;43.164;27.786;2023-04-02T02:00:14;99307.69;;;10.92;71.56
63088;BME280;49173;43.164;27.786;2023-04-02T02:02:42;99302.41;;;10.91;71.28
63088;BME280;49173;43.164;27.786;2023-04-02T02:05:12;99295.34;;;10.90;71.30
63088;BME280;49173;43.164;27.786;2023-04-02T02:07:40;99299.53;;;10.94;71.36
63088;BME280;49173;43.164;27.786;2023-04-02T02:10:13;99297.91;;;10.91;71.02
63088;BME280;49173;43.164;27.786;2023-04-02T02:12:42;99296.06;;;10.92;70.75
63088;BME280;49173;43.164;27.786;2023-04-02T02:15:18;99294.38;;;10.91;70.69
63088;BME280;49173;43.164;27.786;2023-04-02T02:17:49;99299.84;;;10.89;70.79
63088;BME280;49173;43.164;27.786;2023-04-02T02:20:15;99295.34;;;10.90;70.45
63088;BME280;49173;43.164;27.786;2023-04-02T02:22:47;99289.97;;;10.90;70.97
63088;BME280;49173;43.164;27.786;2023-04-02T02:25:17;99286.44;;;10.89;70.57
63088;BME280;49173;43.164;27.786;2023-04-02T02:30:16;99293.63;;;10.89;70.67
63088;BME280;49173;43.164;27.786;2023-04-02T02:33:01;99297.72;;;10.82;70.50
63088;BME280;49173;43.164;27.786;2023-04-02T02:44:33;99292.13;;;10.85;70.73
63088;BME280;49173;43.164;27.786;2023-04-02T02:47:03;99293.88;;;10.86;70.70
63088;BME280;49173;43.164;27.786;2023-04-02T02:49:36;99311.78;;;10.85;70.89
63088;BME280;49173;43.164;27.786;2023-04-02T02:52:19;99308.16;;;10.86;70.63
63088;BME280;49173;43.164;27.786;2023-04-02T02:54:55;99312.53;;;10.87;70.91
63088;BME280;49173;43.164;27.786;2023-04-02T02:57:26;99315.44;;;10.84;70.81
63088;BME280;49173;43.164;27.786;2023-04-02T02:59:57;99311.88;;;10.84;71.00
63088;BME280;49173;43.164;27.786;2023-04-02T03:02:26;99320.06;;;10.82;71.29
63088;BME280;49173;43.164;27.786;2023-04-02T03:04:54;99317.91;;;10.87;71.53
63088;BME280;49173;43.164;27.786;2023-04-02T03:07:22;99321.22;;;10.91;70.99
63088;BME280;49173;43.164;27.786;2023-04-02T03:10:11;99313.06;;;10.92;71.26
63088;BME280;49173;43.164;27.786;2023-04-02T03:13:00;99322.91;;;10.92;71.04
63088;BME280;49173;43.164;27.786;2023-04-02T03:15:37;99320.16;;;10.93;71.17
63088;BME280;49173;43.164;27.786;2023-04-02T03:20:44;99321.63;;;10.97;71.63
63088;BME280;49173;43.164;27.786;2023-04-02T03:23:50;99335.81;;;10.99;71.39
63088;BME280;49173;43.164;27.786;2023-04-02T03:26:22;99330.44;;;10.99;71.52
63088;BME280;49173;43.164;27.786;2023-04-02T03:29:04;99326.88;;;10.99;71.44
63088;BME280;49173;43.164;27.786;2023-04-02T03:31:33;99333.13;;;10.99;71.60
63088;BME280;49173;43.164;27.786;2023-04-02T03:36:56;99334.19;;;10.97;71.65
63088;BME280;49173;43.164;27.786;2023-04-02T03:39:41;99337.59;;;10.99;70.84
63088;BME280;49173;43.164;27.786;2023-04-02T03:42:23;99345.91;;;10.96;71.21
63088;BME280;49173;43.164;27.786;2023-04-02T03:45:06;99341.28;;;10.98;71.28
63088;BME280;49173;43.164;27.786;2023-04-02T03:47:38;99326.13;;;10.97;71.39
63088;BME280;49173;43.164;27.786;2023-04-02T03:50:18;99332.25;;;10.99;71.08
63088;BME280;49173;43.164;27.786;2023-04-02T03:52:46;99335.69;;;11.01;70.86
63088;BME280;49173;43.164;27.786;2023-04-02T03:55:22;99326.66;;;11.02;71.02
63088;BME280;49173;43.164;27.786;2023-04-02T04:00:36;99325.56;;;11.05;70.90
63088;BME280;49173;43.164;27.786;2023-04-02T04:03:13;99325.38;;;11.08;70.82
63088;BME280;49173;43.164;27.786;2023-04-02T04:05:49;99329.63;;;11.10;70.90
63088;BME280;49173;43.164;27.786;2023-04-02T04:08:19;99323.28;;;11.11;71.23
63088;BME280;49173;43.164;27.786;2023-04-02T04:10:53;99336.59;;;11.13;71.48
63088;BME280;49173;43.164;27.786;2023-04-02T04:13:30;99332.84;;;11.15;71.54
63088;BME280;49173;43.164;27.786;2023-04-02T04:16:45;99340.34;;;11.23;70.98
63088;BME280;49173;43.164;27.786;2023-04-02T04:19:33;99332.56;;;11.31;70.78
63088;BME280;49173;43.164;27.786;2023-04-02T04:24:35;99353.47;;;11.39;70.48
63088;BME280;49173;43.164;27.786;2023-04-02T04:27:30;99351.19;;;11.45;70.52
63088;BME280;49173;43.164;27.786;2023-04-02T04:30:14;99355.47;;;11.48;70.47
63088;BME280;49173;43.164;27.786;2023-04-02T04:32:53;99350.22;;;11.46;70.04
63088;BME280;49173;43.164;27.786;2023-04-02T04:35:27;99355.59;;;11.46;69.99
63088;BME280;49173;43.164;27.786;2023-04-02T04:37:56;99355.72;;;11.45;69.96
63088;BME280;49173;43.164;27.786;2023-04-02T04:40:27;99367.19;;;11.47;70.14
63088;BME280;49173;43.164;27.786;2023-04-02T04:42:58;99362.78;;;11.46;69.67
63088;BME280;49173;43.164;27.786;2023-04-02T04:48:23;99377.81;;;11.48;69.93
63088;BME280;49173;43.164;27.786;2023-04-02T04:51:03;99384.94;;;11.49;69.94
63088;BME280;49173;43.164;27.786;2023-04-02T04:53:31;99393.63;;;11.53;69.57
63088;BME280;49173;43.164;27.786;2023-04-02T04:56:02;99396.41;;;11.51;69.64
63088;BME280;49173;43.164;27.786;2023-04-02T04:58:34;99392.88;;;11.51;70.30
63088;BME280;49173;43.164;27.786;2023-04-02T05:01:22;99392.63;;;11.54;69.99
63088;BME280;49173;43.164;27.786;2023-04-02T05:04:15;99397.03;;;11.55;70.44
63088;BME280;49173;43.164;27.786;2023-04-02T05:06:56;99394.13;;;11.58;70.77
63088;BME280;49173;43.164;27.786;2023-04-02T05:09:33;99414.66;;;11.59;70.68
63088;BME280;49173;43.164;27.786;2023-04-02T05:15:03;99407.22;;;11.63;70.43
63088;BME280;49173;43.164;27.786;2023-04-02T05:17:35;99411.50;;;11.65;70.63
63088;BME280;49173;43.164;27.786;2023-04-02T05:20:12;99419.56;;;11.65;70.38
63088;BME280;49173;43.164;27.786;2023-04-02T05:25:21;99425.63;;;11.80;71.05
63088;BME280;49173;43.164;27.786;2023-04-02T05:33:36;99418.97;;;13.34;65.34
63088;BME280;49173;43.164;27.786;2023-04-02T05:35:46;99420.75;;;13.88;64.79
63088;BME280;49173;43.164;27.786;2023-04-02T05:38:20;99426.44;;;13.85;63.29
63088;BME280;49173;43.164;27.786;2023-04-02T05:43:32;99427.63;;;13.49;63.86
63088;BME280;49173;43.164;27.786;2023-04-02T05:46:03;99417.63;;;13.29;64.52
63088;BME280;49173;43.164;27.786;2023-04-02T05:48:37;99417.97;;;13.13;64.95
63088;BME280;49173;43.164;27.786;2023-04-02T05:51:07;99420.06;;;12.98;65.48
63088;BME280;49173;43.164;27.786;2023-04-02T05:53:34;99420.19;;;12.85;66.35
63088;BME280;49173;43.164;27.786;2023-04-02T05:56:20;99434.00;;;12.81;66.71
63088;BME280;49173;43.164;27.786;2023-04-02T05:59:10;99416.16;;;12.69;66.85
63088;BME280;49173;43.164;27.786;2023-04-02T06:02:05;99428.25;;;12.63;67.33
63088;BME280;49173;43.164;27.786;2023-04-02T06:04:56;99427.28;;;12.64;67.86
63088;BME280;49173;43.164;27.786;2023-04-02T06:07:25;99428.00;;;12.66;67.59
63088;BME280;49173;43.164;27.786;2023-04-02T06:15:16;99447.34;;;12.71;67.32
63088;BME280;49173;43.164;27.786;2023-04-02T06:17:50;99448.81;;;12.75;67.33
63088;BME280;49173;43.164;27.786;2023-04-02T06:20:18;99443.06;;;12.80;67.49
63088;BME280;49173;43.164;27.786;2023-04-02T06:23:00;99441.00;;;12.83;67.99
63088;BME280;49173;43.164;27.786;2023-04-02T06:25:33;99440.41;;;12.91;68.21
63088;BME280;49173;43.164;27.786;2023-04-02T06:28:04;99443.56;;;13.18;69.03
63088;BME280;49173;43.164;27.786;2023-04-02T06:30:33;99449.66;;;13.65;68.82
63088;BME280;49173;43.164;27.786;2023-04-02T06:33:00;99451.09;;;14.13;67.46
63088;BME280;49173;43.164;27.786;2023-04-02T06:35:26;99455.84;;;14.52;65.67
63088;BME280;49173;43.164;27.786;2023-04-02T06:37:54;99434.91;;;14.96;63.79
63088;BME280;49173;43.164;27.786;2023-04-02T06:40:45;99426.38;;;15.31;61.69
63088;BME280;49173;43.164;27.786;2023-04-02T06:43:34;99428.34;;;15.70;61.31
63088;BME280;49173;43.164;27.786;2023-04-02T06:46:12;99420.09;;;15.90;59.66
63088;BME280;49173;43.164;27.786;2023-04-02T06:48:40;99429.50;;;16.06;59.54
63088;BME280;49173;43.164;27.786;2023-04-02T06:51:10;99438.63;;;16.24;59.07
63088;BME280;49173;43.164;27.786;2023-04-02T06:53:44;99433.63;;;16.39;57.26
63088;BME280;49173;43.164;27.786;2023-04-02T06:56:26;99424.09;;;16.44;56.99
63088;BME280;49173;43.164;27.786;2023-04-02T06:58:57;99425.22;;;16.32;56.15
63088;BME280;49173;43.164;27.786;2023-04-02T07:01:28;99427.53;;;16.08;56.50
63088;BME280;49173;43.164;27.786;2023-04-02T07:03:55;99419.50;;;15.77;57.22
63088;BME280;49173;43.164;27.786;2023-04-02T07:06:22;99417.44;;;15.50;57.81
63088;BME280;49173;43.164;27.786;2023-04-02T07:08:48;99417.94;;;15.25;58.17
63088;BME280;49173;43.164;27.786;2023-04-02T07:11:16;99435.22;;;15.03;58.54
63088;BME280;49173;43.164;27.786;2023-04-02T07:13:43;99437.69;;;14.85;59.83
63088;BME280;49173;43.164;27.786;2023-04-02T07:16:20;99429.94;;;14.71;60.46
63088;BME280;49173;43.164;27.786;2023-04-02T07:18:47;99430.75;;;14.62;60.52
63088;BME280;49173;43.164;27.786;2023-04-02T07:21:13;99431.44;;;14.64;61.71
63088;BME280;49173;43.164;27.786;2023-04-02T07:23:39;99443.91;;;14.76;61.01
63088;BME280;49173;43.164;27.786;2023-04-02T07:26:06;99434.28;;;14.83;60.78
63088;BME280;49173;43.164;27.786;2023-04-02T07:28:32;99437.47;;;14.98;61.58
63088;BME280;49173;43.164;27.786;2023-04-02T07:30:58;99436.97;;;15.14;60.62
63088;BME280;49173;43.164;27.786;2023-04-02T07:33:27;99447.28;;;15.29;60.07
63088;BME280;49173;43.164;27.786;2023-04-02T07:35:54;99452.13;;;15.35;60.09
63088;BME280;49173;43.164;27.786;2023-04-02T07:38:21;99445.78;;;15.46;59.58
63088;BME280;49173;43.164;27.786;2023-04-02T07:40:46;99447.50;;;15.57;59.28
63088;BME280;49173;43.164;27.786;2023-04-02T07:43:12;99450.97;;;15.69;59.92
63088;BME280;49173;43.164;27.786;2023-04-02T07:45:38;99455.53;;;15.78;58.83
63088;BME280;49173;43.164;27.786;2023-04-02T07:48:05;99467.09;;;15.80;58.74
63088;BME280;49173;43.164;27.786;2023-04-02T07:50:33;99462.81;;;15.77;58.80
63088;BME280;49173;43.164;27.786;2023-04-02T07:52:59;99457.84;;;15.82;59.91
63088;BME280;49173;43.164;27.786;2023-04-02T07:55:25;99463.94;;;15.84;58.66
63088;BME280;49173;43.164;27.786;2023-04-02T07:57:54;99471.34;;;15.73;58.29
63088;BME280;49173;43.164;27.786;2023-04-02T08:00:21;99471.56;;;15.60;58.34
63088;BME280;49173;43.164;27.786;2023-04-02T08:02:47;99482.16;;;15.42;58.20
63088;BME280;49173;43.164;27.786;2023-04-02T08:05:14;99484.25;;;15.29;59.17
63088;BME280;49173;43.164;27.786;2023-04-02T08:07:41;99490.34;;;15.21;59.83
63088;BME280;49173;43.164;27.786;2023-04-02T08:10:08;99483.91;;;15.13;60.45
63088;BME280;49173;43.164;27.786;2023-04-02T08:12:34;99485.63;;;15.14;60.76
63088;BME280;49173;43.164;27.786;2023-04-02T08:15:01;99491.31;;;15.10;60.53
63088;BME280;49173;43.164;27.786;2023-04-02T08:17:27;99504.97;;;15.09;60.97
63088;BME280;49173;43.164;27.786;2023-04-02T08:19:58;99505.06;;;15.07;60.88
63088;BME280;49173;43.164;27.786;2023-04-02T08:22:29;99509.22;;;15.11;61.46
63088;BME280;49173;43.164;27.786;2023-04-02T08:24:55;99510.06;;;15.12;60.76
63088;BME280;49173;43.164;27.786;2023-04-02T08:27:25;99514.94;;;15.18;59.99
63088;BME280;49173;43.164;27.786;2023-04-02T08:29:51;99507.56;;;15.20;61.16
63088;BME280;49173;43.164;27.786;2023-04-02T08:32:17;99512.75;;;15.33;61.01
63088;BME280;49173;43.164;27.786;2023-04-02T08:34:43;99505.97;;;15.48;61.36
63088;BME280;49173;43.164;27.786;2023-04-02T08:37:13;99500.31;;;15.61;59.91
63088;BME280;49173;43.164;27.786;2023-04-02T08:39:39;99513.66;;;15.74;59.89
63088;BME280;49173;43.164;27.786;2023-04-02T08:45:04;99509.25;;;15.82;59.27
63088;BME280;49173;43.164;27.786;2023-04-02T08:47:35;99524.34;;;15.85;58.74
63088;BME280;49173;43.164;27.786;2023-04-02T08:50:15;99514.94;;;15.79;58.27
63088;BME280;49173;43.164;27.786;2023-04-02T08:52:46;99523.63;;;15.73;59.19
63088;BME280;49173;43.164;27.786;2023-04-02T08:58:08;99532.59;;;15.83;58.98
63088;BME280;49173;43.164;27.786;2023-04-02T09:00:43;99536.44;;;15.81;58.54
63088;BME280;49173;43.164;27.786;2023-04-02T09:05:41;99535.84;;;15.77;58.49
63088;BME280;49173;43.164;27.786;2023-04-02T09:08:16;99548.97;;;15.72;57.43
63088;BME280;49173;43.164;27.786;2023-04-02T09:10:50;99544.81;;;15.68;58.27
63088;BME280;49173;43.164;27.786;2023-04-02T09:13:27;99555.16;;;15.63;57.68
63088;BME280;49173;43.164;27.786;2023-04-02T09:16:10;99559.22;;;15.57;58.40
63088;BME280;49173;43.164;27.786;2023-04-02T09:18:37;99556.09;;;15.52;58.91
63088;BME280;49173;43.164;27.786;2023-04-02T09:21:36;99567.78;;;15.53;58.50
63088;BME280;49173;43.164;27.786;2023-04-02T09:24:06;99569.88;;;15.49;58.68
63088;BME280;49173;43.164;27.786;2023-04-02T09:26:33;99557.34;;;15.48;59.60
63088;BME280;49173;43.164;27.786;2023-04-02T09:29:48;99556.09;;;15.52;59.03
63088;BME280;49173;43.164;27.786;2023-04-02T09:32:17;99559.13;;;15.59;59.92
63088;BME280;49173;43.164;27.786;2023-04-02T09:34:46;99551.91;;;15.69;60.06
63088;BME280;49173;43.164;27.786;2023-04-02T09:37:20;99551.69;;;15.82;59.65
63088;BME280;49173;43.164;27.786;2023-04-02T09:39:50;99555.25;;;15.92;59.30
63088;BME280;49173;43.164;27.786;2023-04-02T09:42:33;99550.59;;;16.04;59.78
63088;BME280;49173;43.164;27.786;2023-04-02T09:45:20;99545.34;;;16.12;58.63
63088;BME280;49173;43.164;27.786;2023-04-02T09:47:47;99553.75;;;16.18;58.19
63088;BME280;49173;43.164;27.786;2023-04-02T09:52:47;99549.66;;;16.34;57.86
63088;BME280;49173;43.164;27.786;2023-04-02T09:55:20;99553.66;;;16.39;58.23
63088;BME280;49173;43.164;27.786;2023-04-02T09:57:47;99548.81;;;16.43;58.31
63088;BME280;49173;43.164;27.786;2023-04-02T10:02:42;99552.81;;;16.58;57.54
63088;BME280;49173;43.164;27.786;2023-04-02T10:05:18;99551.25;;;16.65;57.51
63088;BME280;49173;43.164;27.786;2023-04-02T10:07:50;99547.53;;;16.66;56.60
63088;BME280;49173;43.164;27.786;2023-04-02T10:13:02;99554.66;;;16.58;56.52
63088;BME280;49173;43.164;27.786;2023-04-02T10:15:46;99557.78;;;16.53;55.19
63088;BME280;49173;43.164;27.786;2023-04-02T10:18:15;99565.22;;;16.51;55.65
63088;BME280;49173;43.164;27.786;2023-04-02T10:20:46;99566.06;;;16.52;55.27
63088;BME280;49173;43.164;27.786;2023-04-02T10:23:16;99568.63;;;16.53;56.33
63088;BME280;49173;43.164;27.786;2023-04-02T10:25:50;99568.22;;;16.58;56.69
63088;BME280;49173;43.164;27.786;2023-04-02T10:28:43;99570.06;;;16.57;56.13
63088;BME280;49173;43.164;27.786;2023-04-02T10:31:23;99580.06;;;16.57;56.51
63088;BME280;49173;43.164;27.786;2023-04-02T10:33:58;99583.72;;;16.56;56.53
63088;BME280;49173;43.164;27.786;2023-04-02T10:41:58;99589.44;;;16.53;54.14
63088;BME280;49173;43.164;27.786;2023-04-02T10:49:41;99604.00;;;16.61;54.01
63088;BME280;49173;43.164;27.786;2023-04-02T10:52:14;99596.59;;;16.63;53.93
63088;BME280;49173;43.164;27.786;2023-04-02T10:54:48;99604.28;;;16.68;52.49
63088;BME280;49173;43.164;27.786;2023-04-02T10:57:34;99604.75;;;16.73;52.66
63088;BME280;49173;43.164;27.786;2023-04-02T11:06:09;99597.75;;;16.80;52.51
63088;BME280;49173;43.164;27.786;2023-04-02T11:08:41;99600.75;;;16.77;52.19
63088;BME280;49173;43.164;27.786;2023-04-02T11:11:20;99602.75;;;16.75;52.45
63088;BME280;49173;43.164;27.786;2023-04-02T11:14:18;99603.72;;;16.64;52.76
63088;BME280;49173;43.164;27.786;2023-04-02T11:16:42;99601.72;;;16.66;53.34
63088;BME280;49173;43.164;27.786;2023-04-02T11:21:41;99606.88;;;16.69;53.90
63088;BME280;49173;43.164;27.786;2023-04-02T11:30:16;99603.34;;;16.79;54.27
63088;BME280;49173;43.164;27.786;2023-04-02T11:32:38;99593.50;;;16.78;53.86
63088;BME280;49173;43.164;27.786;2023-04-02T11:38:08;99594.19;;;16.80;52.46
63088;BME280;49173;43.164;27.786;2023-04-02T11:40:51;99594.06;;;16.71;51.84
63088;BME280;49173;43.164;27.786;2023-04-02T11:46:04;99604.59;;;16.74;52.43
63088;BME280;49173;43.164;27.786;2023-04-02T11:48:35;99604.03;;;16.81;52.74
63088;BME280;49173;43.164;27.786;2023-04-02T11:53:59;99591.06;;;16.94;51.90
63088;BME280;49173;43.164;27.786;2023-04-02T11:59:23;99597.47;;;17.02;51.85
63088;BME280;49173;43.164;27.786;2023-04-02T12:02:27;99603.88;;;17.11;52.03
63088;BME280;49173;43.164;27.786;2023-04-02T12:05:08;99602.47;;;17.07;51.20
63088;BME280;49173;43.164;27.786;2023-04-02T12:07:53;99598.59;;;17.10;50.08
63088;BME280;49173;43.164;27.786;2023-04-02T12:10:31;99607.56;;;17.10;50.65
63088;BME280;49173;43.164;27.786;2023-04-02T12:13:02;99601.47;;;17.08;49.67
63088;BME280;49173;43.164;27.786;2023-04-02T12:15:44;99602.72;;;17.04;49.94
63088;BME280;49173;43.164;27.786;2023-04-02T12:18:18;99596.59;;;17.02;50.79
63088;BME280;49173;43.164;27.786;2023-04-02T12:20:54;99595.59;;;17.03;51.01
63088;BME280;49173;43.164;27.786;2023-04-02T12:23:31;99588.31;;;17.03;50.75
63088;BME280;49173;43.164;27.786;2023-04-02T12:26:06;99594.91;;;17.01;50.66
63088;BME280;49173;43.164;27.786;2023-04-02T12:28:34;99590.75;;;16.97;49.91
63088;BME280;49173;43.164;27.786;2023-04-02T12:31:12;99596.91;;;16.89;50.17
63088;BME280;49173;43.164;27.786;2023-04-02T12:33:42;99591.94;;;16.85;51.06
63088;BME280;49173;43.164;27.786;2023-04-02T12:38:51;99594.91;;;16.82;51.35
63088;BME280;49173;43.164;27.786;2023-04-02T12:41:26;99593.75;;;16.84;51.77
63088;BME280;49173;43.164;27.786;2023-04-02T12:44:16;99599.75;;;16.88;51.58
63088;BME280;49173;43.164;27.786;2023-04-02T12:46:46;99602.31;;;16.89;51.96
63088;BME280;49173;43.164;27.786;2023-04-02T12:49:33;99604.88;;;16.91;51.88
63088;BME280;49173;43.164;27.786;2023-04-02T12:52:10;99606.88;;;16.89;51.81
63088;BME280;49173;43.164;27.786;2023-04-02T12:54:44;99608.59;;;16.90;52.08
63088;BME280;49173;43.164;27.786;2023-04-02T12:59:58;99611.16;;;16.82;50.74
63088;BME280;49173;43.164;27.786;2023-04-02T13:02:29;99600.31;;;16.82;51.55
63088;BME280;49173;43.164;27.786;2023-04-02T13:05:00;99610.47;;;16.80;50.64
63088;BME280;49173;43.164;27.786;2023-04-02T13:07:31;99612.72;;;16.84;51.90
63088;BME280;49173;43.164;27.786;2023-04-02T13:10:23;99612.72;;;16.84;51.53
63088;BME280;49173;43.164;27.786;2023-04-02T13:12:55;99606.59;;;16.82;50.33
63088;BME280;49173;43.164;27.786;2023-04-02T13:15:33;99602.59;;;16.77;51.09
63088;BME280;49173;43.164;27.786;2023-04-02T13:18:04;99604.44;;;16.66;53.95
63088;BME280;49173;43.164;27.786;2023-04-02T13:20:39;99610.25;;;16.62;55.30
63088;BME280;49173;43.164;27.786;2023-04-02T13:25:58;99608.56;;;16.51;55.98
63088;BME280;49173;43.164;27.786;2023-04-02T13:28:25;99595.41;;;16.46;56.45
63088;BME280;49173;43.164;27.786;2023-04-02T13:30:52;99606.41;;;16.45;56.38
63088;BME280;49173;43.164;27.786;2023-04-02T13:33:21;99599.53;;;16.41;56.63
63088;BME280;49173;43.164;27.786;2023-04-02T13:35:49;99610.66;;;16.38;56.93
63088;BME280;49173;43.164;27.786;2023-04-02T13:38:17;99605.69;;;16.43;56.69
63088;BME280;49173;43.164;27.786;2023-04-02T13:40:44;99600.41;;;16.41;56.82
63088;BME280;49173;43.164;27.786;2023-04-02T13:43:18;99605.69;;;16.43;56.39
63088;BME280;49173;43.164;27.786;2023-04-02T13:45:49;99616.81;;;16.50;56.49
63088;BME280;49173;43.164;27.786;2023-04-02T13:48:18;99609.97;;;16.45;56.10
63088;BME280;49173;43.164;27.786;2023-04-02T13:50:47;99610.13;;;16.44;55.78
63088;BME280;49173;43.164;27.786;2023-04-02T13:53:29;99609.56;;;16.50;56.30
63088;BME280;49173;43.164;27.786;2023-04-02T13:55:58;99606.09;;;16.48;55.71
63088;BME280;49173;43.164;27.786;2023-04-02T13:58:28;99607.81;;;16.49;55.85
63088;BME280;49173;43.164;27.786;2023-04-02T14:00:55;99608.00;;;16.57;55.61
63088;BME280;49173;43.164;27.786;2023-04-02T14:03:23;99611.72;;;16.56;55.80
63088;BME280;49173;43.164;27.786;2023-04-02T14:09:02;99609.16;;;16.64;55.42
63088;BME280;49173;43.164;27.786;2023-04-02T14:11:56;99598.31;;;16.64;54.89
63088;BME280;49173;43.164;27.786;2023-04-02T14:14:39;99607.72;;;16.70;55.28
63088;BME280;49173;43.164;27.786;2023-04-02T14:25:25;99609.56;;;16.60;55.77
63088;BME280;49173;43.164;27.786;2023-04-02T14:31:42;99606.00;;;16.59;55.39
63088;BME280;49173;43.164;27.786;2023-04-02T14:39:43;99620.88;;;16.74;56.43
63088;BME280;49173;43.164;27.786;2023-04-02T14:42:54;99604.91;;;16.71;56.13
63088;BME280;49173;43.164;27.786;2023-04-02T14:46:07;99601.03;;;16.74;56.02
63088;BME280;49173;43.164;27.786;2023-04-02T14:51:15;99608.84;;;16.67;56.80
63088;BME280;49173;43.164;27.786;2023-04-02T14:56:44;99617.44;;;16.72;56.55
63088;BME280;49173;43.164;27.786;2023-04-02T14:59:19;99609.75;;;16.78;55.93
63088;BME280;49173;43.164;27.786;2023-04-02T15:01:49;99599.16;;;16.84;56.13
63088;BME280;49173;43.164;27.786;2023-04-02T15:04:31;99602.03;;;16.83;55.26
63088;BME280;49173;43.164;27.786;2023-04-02T15:07:13;99598.34;;;16.74;55.13
63088;BME280;49173;43.164;27.786;2023-04-02T15:09:48;99609.47;;;16.81;55.48
63088;BME280;49173;43.164;27.786;2023-04-02T15:14:47;99603.91;;;16.92;55.84
63088;BME280;49173;43.164;27.786;2023-04-02T15:17:20;99603.47;;;16.96;55.05
63088;BME280;49173;43.164;27.786;2023-04-02T15:19:47;99619.56;;;16.98;55.25
63088;BME280;49173;43.164;27.786;2023-04-02T15:22:40;99618.16;;;16.94;55.29
63088;BME280;49173;43.164;27.786;2023-04-02T15:25:43;99630.13;;;16.91;54.96
63088;BME280;49173;43.164;27.786;2023-04-02T15:30:48;99638.25;;;16.91;55.37
63088;BME280;49173;43.164;27.786;2023-04-02T15:38:53;99657.97;;;16.93;54.64
63088;BME280;49173;43.164;27.786;2023-04-02T15:41:51;99649.09;;;16.91;54.39
63088;BME280;49173;43.164;27.786;2023-04-02T15:44:23;99641.97;;;16.90;54.54
63088;BME280;49173;43.164;27.786;2023-04-02T15:55:24;99653.38;;;16.84;55.02
63088;BME280;49173;43.164;27.786;2023-04-02T15:58:12;99652.66;;;16.82;54.77
63088;BME280;49173;43.164;27.786;2023-04-02T16:01:13;99654.69;;;16.80;54.66
63088;BME280;49173;43.164;27.786;2023-04-02T16:07:00;99663.50;;;16.72;55.55
63088;BME280;49173;43.164;27.786;2023-04-02T16:10:04;99664.03;;;16.66;55.67
63088;BME280;49173;43.164;27.786;2023-04-02T16:12:33;99656.63;;;16.59;55.61
63088;BME280;49173;43.164;27.786;2023-04-02T16:15:16;99658.03;;;16.53;56.28
63088;BME280;49173;43.164;27.786;2023-04-02T16:17:57;99663.00;;;16.48;56.67
63088;BME280;49173;43.164;27.786;2023-04-02T16:20:35;99668.97;;;16.42;57.04
63088;BME280;49173;43.164;27.786;2023-04-02T16:23:11;99676.81;;;16.35;57.45
63088;BME280;49173;43.164;27.786;2023-04-02T16:29:00;99679.00;;;16.20;58.43
63088;BME280;49173;43.164;27.786;2023-04-02T16:31:52;99677.28;;;16.10;58.78